sensor_id;sensor_type;location;lat;lon;timestamp;pressure;altitude;pressure_sealevel;temperature;humidity
10145;BME280;5113;41.822;23.564;2022-08-02T00:00:21;-11333.84;;;14.43;100.00
10145;BME280;5113;41.822;23.564;2022-08-02T00:03:27;-11322.69;;;14.03;100.00
10145;BME280;5113;41.822;23.564;2022-08-02T00:06:38;-11333.97;;;14.44;100.00
10145;BME280;5113;41.822;23.564;2022-08-02T00:09:44;-11336.22;;;14.52;100.00
10145;BME280;5113;41.822;23.564;2022-08-02T00:12:51;-11335.78;;;14.50;100.00
10145;BME280;5113;41.822;23.564;2022-08-02T00:16:03;-11343.13;;;14.77;100.00
10145;BME280;5113;41.822;23.564;2022-08-02T00:19:10;-11336.66;;;14.53;100.00
10145;BME280;5113;41.822;23.564;2022-08-02T00:22:18;-11324.53;;;14.10;100.00
10145;BME280;5113;41.822;23.564;2022-08-02T00:25:24;-11321.56;;;13.99;100.00
10145;BME280;5113;41.822;23.564;2022-08-02T00:28:32;-11341.84;;;14.72;100.00
10145;BME280;5113;41.822;23.564;2022-08-02T00:31:42;-11351.00;;;15.05;100.00
10145;BME280;5113;41.822;23.564;2022-08-02T00:34:52;-11349.47;;;15.00;100.00
10145;BME280;5113;41.822;23.564;2022-08-02T00:38:03;-11357.06;;;15.27;100.00
10145;BME280;5113;41.822;23.564;2022-08-02T00:41:12;-11343.97;;;14.80;100.00
10145;BME280;5113;41.822;23.564;2022-08-02T00:44:22;-11338.47;;;14.60;100.00
10145;BME280;5113;41.822;23.564;2022-08-02T00:47:31;-11338.06;;;14.59;100.00
10145;BME280;5113;41.822;23.564;2022-08-02T00:50:39;-11340.16;;;14.66;100.00
10145;BME280;5113;41.822;23.564;2022-08-02T00:53:47;-11339.87;;;14.65;100.00
10145;BME280;5113;41.822;23.564;2022-08-02T00:56:57;-11345.09;;;14.84;100.00
10145;BME280;5113;41.822;23.564;2022-08-02T01:00:05;-11341.56;;;14.71;100.00
10145;BME280;5113;41.822;23.564;2022-08-02T01:03:12;-11314.81;;;13.75;100.00
10145;BME280;5113;41.822;23.564;2022-08-02T01:06:19;-11301.44;;;13.27;100.00
10145;BME280;5113;41.822;23.564;2022-08-02T01:09:27;-11305.94;;;13.43;100.00
10145;BME280;5113;41.822;23.564;2022-08-02T01:12:35;-11299.19;;;13.18;100.00
10145;BME280;5113;41.822;23.564;2022-08-02T01:15:46;-11316.50;;;13.81;100.00
10145;BME280;5113;41.822;23.564;2022-08-02T01:19:00;-11305.38;;;13.41;100.00
10145;BME280;5113;41.822;23.564;2022-08-02T01:22:37;-11313.97;;;13.72;100.00
10145;BME280;5113;41.822;23.564;2022-08-02T01:26:24;-11302.28;;;13.30;100.00
10145;BME280;5113;41.822;23.564;2022-08-02T01:29:42;-11294.25;;;13.01;100.00
10145;BME280;5113;41.822;23.564;2022-08-02T01:32:54;-11285.97;;;12.71;100.00
10145;BME280;5113;41.822;23.564;2022-08-02T01:36:10;-11291.88;;;12.92;100.00
10145;BME280;5113;41.822;23.564;2022-08-02T01:39:21;-11290.19;;;12.86;100.00
10145;BME280;5113;41.822;23.564;2022-08-02T01:42:37;-11281.72;;;12.55;100.00
10145;BME280;5113;41.822;23.564;2022-08-02T01:45:47;-11293.69;;;12.99;100.00
10145;BME280;5113;41.822;23.564;2022-08-02T01:48:55;-11298.63;;;13.16;100.00
10145;BME280;5113;41.822;23.564;2022-08-02T01:52:04;-11310.88;;;13.61;100.00
10145;BME280;5113;41.822;23.564;2022-08-02T01:55:33;-11318.63;;;13.88;100.00
10145;BME280;5113;41.822;23.564;2022-08-02T01:59:01;-11309.59;;;13.56;100.00
10145;BME280;5113;41.822;23.564;2022-08-02T02:02:12;-11309.31;;;13.55;100.00
10145;BME280;5113;41.822;23.564;2022-08-02T02:05:26;-11312.41;;;13.66;100.00
10145;BME280;5113;41.822;23.564;2022-08-02T02:08:37;-11284.00;;;12.64;100.00
10145;BME280;5113;41.822;23.564;2022-08-02T02:11:45;-11273.84;;;12.27;100.00
10145;BME280;5113;41.822;23.564;2022-08-02T02:15:12;-11276.94;;;12.38;100.00
10145;BME280;5113;41.822;23.564;2022-08-02T02:18:23;-11281.44;;;12.54;100.00
10145;BME280;5113;41.822;23.564;2022-08-02T02:21:32;-11303.56;;;13.34;100.00
10145;BME280;5113;41.822;23.564;2022-08-02T02:24:39;-11300.31;;;13.23;100.00
10145;BME280;5113;41.822;23.564;2022-08-02T02:27:54;-11303.97;;;13.36;100.00
10145;BME280;5113;41.822;23.564;2022-08-02T02:31:06;-11310.16;;;13.58;100.00
10145;BME280;5113;41.822;23.564;2022-08-02T02:34:24;-11318.34;;;13.87;100.00
10145;BME280;5113;41.822;23.564;2022-08-02T02:37:32;-11322.56;;;14.03;100.00
10145;BME280;5113;41.822;23.564;2022-08-02T02:40:44;-11319.47;;;13.92;100.00
10145;BME280;5113;41.822;23.564;2022-08-02T02:43:53;-11317.78;;;13.85;100.00
10145;BME280;5113;41.822;23.564;2022-08-02T02:47:06;-11316.09;;;13.79;100.00
10145;BME280;5113;41.822;23.564;2022-08-02T02:50:22;-11318.91;;;13.89;100.00
10145;BME280;5113;41.822;23.564;2022-08-02T02:53:30;-11312.72;;;13.67;100.00
10145;BME280;5113;41.822;23.564;2022-08-02T02:56:57;-11321.72;;;14.00;100.00
10145;BME280;5113;41.822;23.564;2022-08-02T03:00:05;-11317.50;;;13.84;100.00
10145;BME280;5113;41.822;23.564;2022-08-02T03:03:12;-11315.53;;;13.77;100.00
10145;BME280;5113;41.822;23.564;2022-08-02T03:06:26;-11315.66;;;13.78;100.00
10145;BME280;5113;41.822;23.564;2022-08-02T03:09:37;-11315.66;;;13.78;100.00
10145;BME280;5113;41.822;23.564;2022-08-02T03:12:44;-11311.56;;;13.63;100.00
10145;BME280;5113;41.822;23.564;2022-08-02T03:15:51;-11284.28;;;12.65;100.00
10145;BME280;5113;41.822;23.564;2022-08-02T03:19:03;-11288.19;;;12.79;100.00
10145;BME280;5113;41.822;23.564;2022-08-02T03:22:11;-11278.22;;;12.43;100.00
10145;BME280;5113;41.822;23.564;2022-08-02T03:25:21;-11273.00;;;12.24;100.00
10145;BME280;5113;41.822;23.564;2022-08-02T03:28:28;-11273.00;;;12.24;100.00
10145;BME280;5113;41.822;23.564;2022-08-02T03:31:35;-11273.56;;;12.26;100.00
10145;BME280;5113;41.822;23.564;2022-08-02T03:34:46;-11268.66;;;12.08;100.00
10145;BME280;5113;41.822;23.564;2022-08-02T03:37:57;-11279.19;;;12.46;100.00
10145;BME280;5113;41.822;23.564;2022-08-02T03:41:05;-11282.16;;;12.57;100.00
10145;BME280;5113;41.822;23.564;2022-08-02T03:44:13;-11271.75;;;12.19;100.00
10145;BME280;5113;41.822;23.564;2022-08-02T03:47:20;-11270.19;;;12.14;100.00
10145;BME280;5113;41.822;23.564;2022-08-02T03:50:29;-11274.00;;;12.28;100.00
10145;BME280;5113;41.822;23.564;2022-08-02T03:53:39;-11261.75;;;11.83;100.00
10145;BME280;5113;41.822;23.564;2022-08-02T03:56:46;-11263.31;;;11.89;100.00
10145;BME280;5113;41.822;23.564;2022-08-02T03:59:55;-11266.13;;;11.99;100.00
10145;BME280;5113;41.822;23.564;2022-08-02T04:03:10;-11262.72;;;11.87;100.00
10145;BME280;5113;41.822;23.564;2022-08-02T04:06:23;-11263.44;;;11.89;100.00
10145;BME280;5113;41.822;23.564;2022-08-02T04:09:34;-11274.97;;;12.31;100.00
10145;BME280;5113;41.822;23.564;2022-08-02T04:12:43;-11276.81;;;12.38;100.00
10145;BME280;5113;41.822;23.564;2022-08-02T04:15:53;-11296.66;;;13.09;100.00
10145;BME280;5113;41.822;23.564;2022-08-02T04:19:06;-11301.59;;;13.27;100.00
10145;BME280;5113;41.822;23.564;2022-08-02T04:22:22;-11300.88;;;13.25;100.00
10145;BME280;5113;41.822;23.564;2022-08-02T04:25:35;-11303.69;;;13.35;100.00
10145;BME280;5113;41.822;23.564;2022-08-02T04:28:47;-11318.91;;;13.89;100.00
10145;BME280;5113;41.822;23.564;2022-08-02T04:31:53;-11323.13;;;14.05;100.00
10145;BME280;5113;41.822;23.564;2022-08-02T04:35:05;-11313.56;;;13.70;100.00
10145;BME280;5113;41.822;23.564;2022-08-02T04:38:23;-11304.53;;;13.38;100.00
10145;BME280;5113;41.822;23.564;2022-08-02T04:41:46;-11314.41;;;13.73;100.00
10145;BME280;5113;41.822;23.564;2022-08-02T04:44:52;-11318.06;;;13.86;100.00
10145;BME280;5113;41.822;23.564;2022-08-02T04:48:03;-11342.69;;;14.75;100.00
10145;BME280;5113;41.822;23.564;2022-08-02T04:51:12;-11336.66;;;14.53;100.00
10145;BME280;5113;41.822;23.564;2022-08-02T04:54:26;-11348.47;;;14.96;100.00
10145;BME280;5113;41.822;23.564;2022-08-02T04:57:34;-11363.41;;;15.50;100.00
10145;BME280;5113;41.822;23.564;2022-08-02T05:00:58;-11366.94;;;15.63;100.00
10145;BME280;5113;41.822;23.564;2022-08-02T05:04:11;-11374.97;;;15.92;100.00
10145;BME280;5113;41.822;23.564;2022-08-02T05:07:26;-11382.28;;;16.18;100.00
10145;BME280;5113;41.822;23.564;2022-08-02T05:10:40;-11377.78;;;16.02;100.00
10145;BME280;5113;41.822;23.564;2022-08-02T05:13:58;-11375.53;;;15.94;100.00
10145;BME280;5113;41.822;23.564;2022-08-02T05:17:05;-11391.31;;;16.50;100.00
10145;BME280;5113;41.822;23.564;2022-08-02T05:20:22;-11392.72;;;16.56;100.00
10145;BME280;5113;41.822;23.564;2022-08-02T05:23:36;-11401.31;;;16.87;100.00
10145;BME280;5113;41.822;23.564;2022-08-02T05:27:02;-11408.22;;;17.11;100.00
10145;BME280;5113;41.822;23.564;2022-08-02T05:30:32;-11412.72;;;17.28;97.92
10145;BME280;5113;41.822;23.564;2022-08-02T05:33:48;-11422.31;;;17.62;97.13
10145;BME280;5113;41.822;23.564;2022-08-02T05:36:58;-11416.53;;;17.41;97.88
10145;BME280;5113;41.822;23.564;2022-08-02T05:40:14;-11435.84;;;18.11;96.08
10145;BME280;5113;41.822;23.564;2022-08-02T05:43:30;-11435.97;;;18.11;96.98
10145;BME280;5113;41.822;23.564;2022-08-02T05:46:37;-11429.94;;;17.90;97.71
10145;BME280;5113;41.822;23.564;2022-08-02T05:50:00;-11435.13;;;18.08;96.43
10145;BME280;5113;41.822;23.564;2022-08-02T05:53:26;-11460.81;;;19.01;91.42
10145;BME280;5113;41.822;23.564;2022-08-02T05:56:44;-11465.59;;;19.18;90.56
10145;BME280;5113;41.822;23.564;2022-08-02T06:00:05;-11470.25;;;19.35;87.27
10145;BME280;5113;41.822;23.564;2022-08-02T06:03:53;-11471.09;;;19.38;81.39
10145;BME280;5113;41.822;23.564;2022-08-02T06:07:21;-11479.28;;;19.67;80.07
10145;BME280;5113;41.822;23.564;2022-08-02T06:10:39;-11476.03;;;19.56;80.23
10145;BME280;5113;41.822;23.564;2022-08-02T06:13:49;-11475.63;;;19.54;82.26
10145;BME280;5113;41.822;23.564;2022-08-02T06:17:03;-11488.59;;;20.01;79.54
10145;BME280;5113;41.822;23.564;2022-08-02T06:20:21;-11491.41;;;20.11;75.74
10145;BME280;5113;41.822;23.564;2022-08-02T06:23:41;-11497.31;;;20.32;76.17
10145;BME280;5113;41.822;23.564;2022-08-02T06:27:27;-11503.53;;;20.55;72.02
10145;BME280;5113;41.822;23.564;2022-08-02T06:30:52;-11509.47;;;20.76;69.33
10145;BME280;5113;41.822;23.564;2022-08-02T06:34:11;-11497.47;;;20.33;71.20
10145;BME280;5113;41.822;23.564;2022-08-02T06:37:43;-11514.13;;;20.93;69.73
10145;BME280;5113;41.822;23.564;2022-08-02T06:41:01;-11530.75;;;21.53;66.66
10145;BME280;5113;41.822;23.564;2022-08-02T06:44:09;-11523.84;;;21.28;63.59
10145;BME280;5113;41.822;23.564;2022-08-02T06:47:35;-11521.44;;;21.19;64.69
10145;BME280;5113;41.822;23.564;2022-08-02T06:50:51;-11542.63;;;21.95;62.83
10145;BME280;5113;41.822;23.564;2022-08-02T06:54:04;-11548.53;;;22.17;61.60
10145;BME280;5113;41.822;23.564;2022-08-02T06:57:12;-11544.44;;;22.02;60.51
10145;BME280;5113;41.822;23.564;2022-08-02T07:00:41;-11562.50;;;22.67;58.33
10145;BME280;5113;41.822;23.564;2022-08-02T07:03:47;-11547.84;;;22.14;57.38
10145;BME280;5113;41.822;23.564;2022-08-02T07:06:54;-11554.34;;;22.37;55.42
10145;BME280;5113;41.822;23.564;2022-08-02T07:10:07;-11551.09;;;22.26;56.05
10145;BME280;5113;41.822;23.564;2022-08-02T07:13:31;-11564.22;;;22.73;55.07
10145;BME280;5113;41.822;23.564;2022-08-02T07:16:45;-11548.81;;;22.18;54.84
10145;BME280;5113;41.822;23.564;2022-08-02T07:19:51;-11565.63;;;22.78;55.94
10145;BME280;5113;41.822;23.564;2022-08-02T07:23:23;-11583.25;;;23.42;53.64
10145;BME280;5113;41.822;23.564;2022-08-02T07:26:41;-11564.78;;;22.75;53.08
10145;BME280;5113;41.822;23.564;2022-08-02T07:30:10;-11570.13;;;22.94;54.00
10145;BME280;5113;41.822;23.564;2022-08-02T07:33:21;-11585.66;;;23.50;52.45
10145;BME280;5113;41.822;23.564;2022-08-02T07:36:42;-11578.03;;;23.23;53.23
10145;BME280;5113;41.822;23.564;2022-08-02T07:40:14;-11576.91;;;23.19;51.80
10145;BME280;5113;41.822;23.564;2022-08-02T07:43:26;-11601.19;;;24.06;51.24
10145;BME280;5113;41.822;23.564;2022-08-02T07:46:32;-11590.19;;;23.66;51.73
10145;BME280;5113;41.822;23.564;2022-08-02T07:51:07;-11601.47;;;24.07;51.63
10145;BME280;5113;41.822;23.564;2022-08-02T07:53:23;-11592.00;;;23.73;51.77
10145;BME280;5113;41.822;23.564;2022-08-02T07:56:58;-11599.78;;;24.01;52.22
10145;BME280;5113;41.822;23.564;2022-08-02T08:00:16;-11607.69;;;24.29;51.76
10145;BME280;5113;41.822;23.564;2022-08-02T08:03:25;-11606.84;;;24.26;51.45
10145;BME280;5113;41.822;23.564;2022-08-02T08:06:39;-11613.34;;;24.50;50.25
10145;BME280;5113;41.822;23.564;2022-08-02T08:09:57;-11616.84;;;24.62;48.83
10145;BME280;5113;41.822;23.564;2022-08-02T08:13:27;-11602.31;;;24.10;50.18
10145;BME280;5113;41.822;23.564;2022-08-02T08:16:37;-11614.88;;;24.55;49.92
10145;BME280;5113;41.822;23.564;2022-08-02T08:19:49;-11617.56;;;24.65;48.57
10145;BME280;5113;41.822;23.564;2022-08-02T08:23:08;-11625.75;;;24.94;49.66
10145;BME280;5113;41.822;23.564;2022-08-02T08:26:17;-11615.31;;;24.57;48.47
10145;BME280;5113;41.822;23.564;2022-08-02T08:29:26;-11608.66;;;24.33;48.59
10145;BME280;5113;41.822;23.564;2022-08-02T08:32:37;-11621.81;;;24.80;47.35
10145;BME280;5113;41.822;23.564;2022-08-02T08:35:56;-11630.41;;;25.11;47.50
10145;BME280;5113;41.822;23.564;2022-08-02T08:39:09;-11643.81;;;25.59;47.08
10145;BME280;5113;41.822;23.564;2022-08-02T08:42:39;-11615.59;;;24.58;46.77
10145;BME280;5113;41.822;23.564;2022-08-02T08:45:47;-11629.72;;;25.09;45.71
10145;BME280;5113;41.822;23.564;2022-08-02T08:53:01;-11656.53;;;26.05;44.46
10145;BME280;5113;41.822;23.564;2022-08-02T08:56:13;-11635.50;;;25.29;44.24
10145;BME280;5113;41.822;23.564;2022-08-02T08:59:26;-11652.88;;;25.92;45.00
10145;BME280;5113;41.822;23.564;2022-08-02T09:02:43;-11644.09;;;25.60;44.86
10145;BME280;5113;41.822;23.564;2022-08-02T09:06:06;-11653.84;;;25.95;43.94
10145;BME280;5113;41.822;23.564;2022-08-02T09:09:16;-11647.94;;;25.74;44.28
10145;BME280;5113;41.822;23.564;2022-08-02T09:12:31;-11646.50;;;25.69;43.04
10145;BME280;5113;41.822;23.564;2022-08-02T09:15:59;-11662.87;;;26.28;43.22
10145;BME280;5113;41.822;23.564;2022-08-02T09:19:22;-11658.22;;;26.11;42.39
10145;BME280;5113;41.822;23.564;2022-08-02T09:22:53;-11643.69;;;25.59;42.93
10145;BME280;5113;41.822;23.564;2022-08-02T09:26:11;-11646.22;;;25.68;42.34
10145;BME280;5113;41.822;23.564;2022-08-02T09:29:21;-11653.44;;;25.94;43.07
10145;BME280;5113;41.822;23.564;2022-08-02T09:32:48;-11668.53;;;26.48;41.52
10145;BME280;5113;41.822;23.564;2022-08-02T09:36:03;-11665.72;;;26.38;41.84
10145;BME280;5113;41.822;23.564;2022-08-02T09:39:15;-11690.16;;;27.26;40.74
10145;BME280;5113;41.822;23.564;2022-08-02T09:42:25;-11695.94;;;27.47;41.91
10145;BME280;5113;41.822;23.564;2022-08-02T09:45:38;-11667.69;;;26.45;42.23
10145;BME280;5113;41.822;23.564;2022-08-02T09:48:49;-11682.25;;;26.98;42.20
10145;BME280;5113;41.822;23.564;2022-08-02T09:51:57;-11658.50;;;26.12;40.78
10145;BME280;5113;41.822;23.564;2022-08-02T09:55:05;-11696.06;;;27.47;40.86
10145;BME280;5113;41.822;23.564;2022-08-02T09:58:22;-11698.34;;;27.55;42.08
10145;BME280;5113;41.822;23.564;2022-08-02T10:01:33;-11694.09;;;27.40;39.81
10145;BME280;5113;41.822;23.564;2022-08-02T10:04:41;-11697.50;;;27.52;39.99
10145;BME280;5113;41.822;23.564;2022-08-02T10:07:57;-11681.25;;;26.94;39.46
10145;BME280;5113;41.822;23.564;2022-08-02T10:11:17;-11728.44;;;28.64;37.98
10145;BME280;5113;41.822;23.564;2022-08-02T10:14:27;-11698.47;;;27.56;39.59
10145;BME280;5113;41.822;23.564;2022-08-02T10:17:37;-11721.09;;;28.37;38.35
10145;BME280;5113;41.822;23.564;2022-08-02T10:20:50;-11691.00;;;27.29;41.18
10145;BME280;5113;41.822;23.564;2022-08-02T10:24:11;-11714.72;;;28.14;39.22
10145;BME280;5113;41.822;23.564;2022-08-02T10:27:20;-11699.47;;;27.59;40.70
10145;BME280;5113;41.822;23.564;2022-08-02T10:30:37;-11715.16;;;28.16;40.83
10145;BME280;5113;41.822;23.564;2022-08-02T10:35:05;-11734.09;;;28.84;39.06
10145;BME280;5113;41.822;23.564;2022-08-02T10:37:32;-11719.38;;;28.31;38.17
10145;BME280;5113;41.822;23.564;2022-08-02T10:40:45;-11698.34;;;27.55;41.62
10145;BME280;5113;41.822;23.564;2022-08-02T10:43:53;-11691.56;;;27.31;41.86
10145;BME280;5113;41.822;23.564;2022-08-02T10:47:29;-11700.31;;;27.63;40.27
10145;BME280;5113;41.822;23.564;2022-08-02T10:51:01;-11704.56;;;27.78;39.61
10145;BME280;5113;41.822;23.564;2022-08-02T10:54:08;-11697.50;;;27.52;39.44
10145;BME280;5113;41.822;23.564;2022-08-02T10:57:17;-11703.56;;;27.74;38.49
10145;BME280;5113;41.822;23.564;2022-08-02T11:00:26;-11704.00;;;27.76;39.30
10145;BME280;5113;41.822;23.564;2022-08-02T11:03:39;-11741.72;;;29.11;37.94
10145;BME280;5113;41.822;23.564;2022-08-02T11:07:07;-11730.53;;;28.71;38.22
10145;BME280;5113;41.822;23.564;2022-08-02T11:10:40;-11714.03;;;28.12;38.72
10145;BME280;5113;41.822;23.564;2022-08-02T11:14:00;-11729.84;;;28.69;38.43
10145;BME280;5113;41.822;23.564;2022-08-02T11:17:13;-11734.09;;;28.84;37.75
10145;BME280;5113;41.822;23.564;2022-08-02T11:20:24;-11722.91;;;28.44;38.14
10145;BME280;5113;41.822;23.564;2022-08-02T11:23:38;-11731.25;;;28.74;37.65
10145;BME280;5113;41.822;23.564;2022-08-02T11:26:50;-11757.38;;;29.68;36.75
10145;BME280;5113;41.822;23.564;2022-08-02T11:30:11;-11760.78;;;29.80;36.37
10145;BME280;5113;41.822;23.564;2022-08-02T11:33:35;-11746.38;;;29.28;36.82
10145;BME280;5113;41.822;23.564;2022-08-02T11:36:45;-11755.41;;;29.61;36.69
10145;BME280;5113;41.822;23.564;2022-08-02T11:39:53;-11745.09;;;29.23;35.84
10145;BME280;5113;41.822;23.564;2022-08-02T11:43:00;-11728.72;;;28.65;36.87
10145;BME280;5113;41.822;23.564;2022-08-02T11:46:12;-11728.56;;;28.64;37.54
10145;BME280;5113;41.822;23.564;2022-08-02T11:49:20;-11730.13;;;28.70;36.86
10145;BME280;5113;41.822;23.564;2022-08-02T11:52:32;-11747.50;;;29.32;36.48
10145;BME280;5113;41.822;23.564;2022-08-02T11:55:39;-11776.88;;;30.38;33.67
10145;BME280;5113;41.822;23.564;2022-08-02T11:59:05;-11756.53;;;29.65;35.81
10145;BME280;5113;41.822;23.564;2022-08-02T12:02:19;-11757.25;;;29.67;34.52
10145;BME280;5113;41.822;23.564;2022-08-02T12:05:27;-11742.00;;;29.12;35.73
10145;BME280;5113;41.822;23.564;2022-08-02T12:09:03;-11750.91;;;29.44;36.39
10145;BME280;5113;41.822;23.564;2022-08-02T12:12:21;-11751.75;;;29.47;35.87
10145;BME280;5113;41.822;23.564;2022-08-02T12:15:39;-11761.34;;;29.82;35.26
10145;BME280;5113;41.822;23.564;2022-08-02T12:18:53;-11781.41;;;30.54;34.27
10145;BME280;5113;41.822;23.564;2022-08-02T12:22:26;-11759.94;;;29.77;35.26
10145;BME280;5113;41.822;23.564;2022-08-02T12:25:33;-11769.25;;;30.10;35.93
10145;BME280;5113;41.822;23.564;2022-08-02T12:28:39;-11751.88;;;29.48;35.30
10145;BME280;5113;41.822;23.564;2022-08-02T12:31:48;-11765.31;;;29.96;34.91
10145;BME280;5113;41.822;23.564;2022-08-02T12:35:04;-11751.88;;;29.48;36.18
10145;BME280;5113;41.822;23.564;2022-08-02T12:38:15;-11800.91;;;31.24;33.66
10145;BME280;5113;41.822;23.564;2022-08-02T12:41:22;-11779.72;;;30.48;33.95
10145;BME280;5113;41.822;23.564;2022-08-02T12:44:37;-11773.34;;;30.25;34.98
10145;BME280;5113;41.822;23.564;2022-08-02T12:47:48;-11765.44;;;29.97;35.48
10145;BME280;5113;41.822;23.564;2022-08-02T12:51:20;-11754.56;;;29.57;35.96
10145;BME280;5113;41.822;23.564;2022-08-02T12:54:58;-11750.34;;;29.42;35.60
10145;BME280;5113;41.822;23.564;2022-08-02T12:58:05;-11811.38;;;31.62;33.94
10145;BME280;5113;41.822;23.564;2022-08-02T13:01:19;-11763.03;;;29.88;35.24
10145;BME280;5113;41.822;23.564;2022-08-02T13:04:29;-11747.63;;;29.33;36.06
10145;BME280;5113;41.822;23.564;2022-08-02T13:07:38;-11763.19;;;29.88;36.66
10145;BME280;5113;41.822;23.564;2022-08-02T13:10:49;-11749.47;;;29.39;36.88
10145;BME280;5113;41.822;23.564;2022-08-02T13:13:58;-11769.81;;;30.12;35.50
10145;BME280;5113;41.822;23.564;2022-08-02T13:17:08;-11741.84;;;29.12;36.33
10145;BME280;5113;41.822;23.564;2022-08-02T13:20:15;-11782.41;;;30.58;34.57
10145;BME280;5113;41.822;23.564;2022-08-02T13:23:21;-11753.44;;;29.53;36.24
10145;BME280;5113;41.822;23.564;2022-08-02T13:26:49;-11788.62;;;30.80;35.53
10145;BME280;5113;41.822;23.564;2022-08-02T13:30:12;-11807.41;;;31.47;34.78
10145;BME280;5113;41.822;23.564;2022-08-02T13:33:20;-11764.88;;;29.95;36.36
10145;BME280;5113;41.822;23.564;2022-08-02T13:36:27;-11780.00;;;30.49;36.34
10145;BME280;5113;41.822;23.564;2022-08-02T13:39:33;-11761.91;;;29.84;35.50
10145;BME280;5113;41.822;23.564;2022-08-02T13:42:44;-11761.78;;;29.83;35.87
10145;BME280;5113;41.822;23.564;2022-08-02T13:45:50;-11741.72;;;29.11;35.86
10145;BME280;5113;41.822;23.564;2022-08-02T13:48:57;-11744.97;;;29.23;38.35
10145;BME280;5113;41.822;23.564;2022-08-02T13:52:04;-11742.13;;;29.13;36.84
10145;BME280;5113;41.822;23.564;2022-08-02T13:55:11;-11744.81;;;29.22;37.68
10145;BME280;5113;41.822;23.564;2022-08-02T13:58:18;-11751.03;;;29.45;37.20
10145;BME280;5113;41.822;23.564;2022-08-02T14:01:25;-11776.03;;;30.35;36.04
10145;BME280;5113;41.822;23.564;2022-08-02T14:04:32;-11752.44;;;29.50;36.42
10145;BME280;5113;41.822;23.564;2022-08-02T14:07:40;-11762.34;;;29.85;36.30
10145;BME280;5113;41.822;23.564;2022-08-02T14:10:47;-11774.63;;;30.30;35.36
10145;BME280;5113;41.822;23.564;2022-08-02T14:13:55;-11751.88;;;29.48;35.47
10145;BME280;5113;41.822;23.564;2022-08-02T14:17:02;-11746.38;;;29.28;36.15
10145;BME280;5113;41.822;23.564;2022-08-02T14:20:13;-11737.59;;;28.97;37.67
10145;BME280;5113;41.822;23.564;2022-08-02T14:23:26;-11722.91;;;28.44;36.96
10145;BME280;5113;41.822;23.564;2022-08-02T14:26:54;-11712.47;;;28.06;37.95
10145;BME280;5113;41.822;23.564;2022-08-02T14:30:05;-11711.75;;;28.04;39.04
10145;BME280;5113;41.822;23.564;2022-08-02T14:33:14;-11704.84;;;27.79;39.09
10145;BME280;5113;41.822;23.564;2022-08-02T14:36:22;-11707.09;;;27.87;41.18
10145;BME280;5113;41.822;23.564;2022-08-02T14:39:31;-11702.03;;;27.69;38.83
10145;BME280;5113;41.822;23.564;2022-08-02T14:43:02;-11695.66;;;27.46;39.23
10145;BME280;5113;41.822;23.564;2022-08-02T14:46:10;-11696.94;;;27.50;39.44
10145;BME280;5113;41.822;23.564;2022-08-02T14:49:16;-11700.88;;;27.65;39.33
10145;BME280;5113;41.822;23.564;2022-08-02T14:52:30;-11689.00;;;27.22;39.38
10145;BME280;5113;41.822;23.564;2022-08-02T14:55:36;-11692.41;;;27.34;39.73
10145;BME280;5113;41.822;23.564;2022-08-02T14:58:43;-11695.78;;;27.46;40.14
10145;BME280;5113;41.822;23.564;2022-08-02T15:01:51;-11691.56;;;27.31;39.98
10145;BME280;5113;41.822;23.564;2022-08-02T15:04:57;-11694.66;;;27.42;39.51
10145;BME280;5113;41.822;23.564;2022-08-02T15:08:05;-11692.13;;;27.33;40.34
10145;BME280;5113;41.822;23.564;2022-08-02T15:11:21;-11696.66;;;27.49;39.20
10145;BME280;5113;41.822;23.564;2022-08-02T15:14:29;-11693.13;;;27.37;40.48
10145;BME280;5113;41.822;23.564;2022-08-02T15:17:37;-11694.66;;;27.42;40.74
10145;BME280;5113;41.822;23.564;2022-08-02T15:20:44;-11695.78;;;27.46;41.16
10145;BME280;5113;41.822;23.564;2022-08-02T15:24:01;-11690.44;;;27.27;40.28
10145;BME280;5113;41.822;23.564;2022-08-02T15:27:08;-11688.59;;;27.20;41.46
10145;BME280;5113;41.822;23.564;2022-08-02T15:30:18;-11675.75;;;26.74;39.54
10145;BME280;5113;41.822;23.564;2022-08-02T15:33:26;-11673.75;;;26.67;39.09
10145;BME280;5113;41.822;23.564;2022-08-02T15:36:33;-11681.09;;;26.93;39.73
10145;BME280;5113;41.822;23.564;2022-08-02T15:39:40;-11681.38;;;26.94;42.42
10145;BME280;5113;41.822;23.564;2022-08-02T15:42:46;-11678.72;;;26.85;41.98
10145;BME280;5113;41.822;23.564;2022-08-02T15:45:53;-11675.19;;;26.72;41.04
10145;BME280;5113;41.822;23.564;2022-08-02T15:49:01;-11678.00;;;26.82;42.03
10145;BME280;5113;41.822;23.564;2022-08-02T15:52:08;-11679.13;;;26.86;42.81
10145;BME280;5113;41.822;23.564;2022-08-02T15:55:15;-11679.13;;;26.86;41.61
10145;BME280;5113;41.822;23.564;2022-08-02T15:58:21;-11678.84;;;26.85;41.70
10145;BME280;5113;41.822;23.564;2022-08-02T16:01:28;-11674.31;;;26.69;42.12
10145;BME280;5113;41.822;23.564;2022-08-02T16:04:43;-11672.06;;;26.61;42.98
10145;BME280;5113;41.822;23.564;2022-08-02T16:07:49;-11674.47;;;26.70;42.35
10145;BME280;5113;41.822;23.564;2022-08-02T16:10:56;-11670.09;;;26.54;43.12
10145;BME280;5113;41.822;23.564;2022-08-02T16:14:02;-11665.84;;;26.39;43.07
10145;BME280;5113;41.822;23.564;2022-08-02T16:17:09;-11667.00;;;26.43;42.59
10145;BME280;5113;41.822;23.564;2022-08-02T16:20:37;-11664.59;;;26.34;42.59
10145;BME280;5113;41.822;23.564;2022-08-02T16:23:44;-11661.91;;;26.24;43.58
10145;BME280;5113;41.822;23.564;2022-08-02T16:27:07;-11664.44;;;26.34;42.68
10145;BME280;5113;41.822;23.564;2022-08-02T16:30:13;-11659.63;;;26.16;43.56
10145;BME280;5113;41.822;23.564;2022-08-02T16:33:20;-11655.69;;;26.02;43.47
10145;BME280;5113;41.822;23.564;2022-08-02T16:36:28;-11648.50;;;25.76;43.44
10145;BME280;5113;41.822;23.564;2022-08-02T16:39:35;-11650.59;;;25.84;43.82
10145;BME280;5113;41.822;23.564;2022-08-02T16:42:43;-11653.44;;;25.94;44.02
10145;BME280;5113;41.822;23.564;2022-08-02T16:45:55;-11651.75;;;25.88;43.83
10145;BME280;5113;41.822;23.564;2022-08-02T16:49:03;-11644.09;;;25.60;45.23
10145;BME280;5113;41.822;23.564;2022-08-02T16:52:31;-11644.66;;;25.62;45.92